Time;durP1;ratioP1;P1;durP2;ratioP2;P2;SDS_P1;SDS_P2;PMS_P1;PMS_P2;Temp;Humidity;BMP_temperature;BMP_pressure;BME280_temperature;BME280_humidity;BME280_pressure;Samples;Min_cycle;Max_cycle;Signal;HPM_P1;HPM_P2
2022/02/09 00:05:26;;;;;;;6.82;3.15;;;;;;;2.01;35.64;93724.53;5063773;28;20044;-90
2022/02/09 00:08:11;;;;;;;;;;;;;;;;;;;;;
2022/02/09 00:10:48;;;;;;;6.43;3.50;;;;;;;2.01;35.55;93728.91;5055970;28;20045;-89
2022/02/09 00:19:26;;;;;;;11.48;4.75;;;;;;;2.27;35.51;93767.59;5052385;28;20039;-89
2022/02/09 00:44:15;;;;;;;12.80;5.13;;;;;;;2.04;36.57;93744.78;5075430;28;20109;-89
2022/02/09 01:57:50;;;;;;;7.57;3.13;;;;;;;1.72;37.59;93754.19;5071819;28;20037;-89
2022/02/09 02:00:29;;;;;;;5.57;2.75;;;;;;;1.52;37.78;93732.75;5072962;28;20052;-89
2022/02/09 02:03:03;;;;;;;5.18;2.30;;;;;;;1.45;37.76;93723.22;5082278;28;20048;-90
2022/02/09 02:05:47;;;;;;;4.95;2.25;;;;;;;1.54;38.18;93735.94;5093707;28;20551;-89
2022/02/09 02:08:47;;;;;;;6.22;2.13;;;;;;;1.80;38.49;93774.63;5076186;28;20115;-89
2022/02/09 02:11:32;;;;;;;3.33;1.80;;;;;;;1.73;38.46;93763.50;5086939;28;20047;-90
2022/02/09 02:17:02;;;;;;;5.20;1.90;;;;;;;1.71;39.39;93780.97;5072216;28;20048;-88
2022/02/09 02:20:01;;;;;;;3.25;1.77;;;;;;;1.38;39.80;93727.59;5072436;28;20036;-89
2022/02/09 02:28:56;;;;;;;3.30;1.65;;;;;;;1.35;40.35;93725.41;5043114;28;20485;-89
2022/02/09 02:38:35;;;;;;;6.80;2.20;;;;;;;1.24;40.92;93713.13;5028218;28;20041;-89
2022/02/09 03:13:19;;;;;;;4.75;2.58;;;;;;;1.32;40.15;93751.59;5072886;28;20043;-89
2022/02/09 03:16:16;;;;;;;6.93;3.50;;;;;;;0.92;40.23;93692.25;5063106;28;20040;-88
2022/02/09 03:31:19;;;;;;;6.00;2.80;;;;;;;0.89;40.75;93697.03;5077487;28;20048;-88
2022/02/09 03:43:17;;;;;;;4.65;2.67;;;;;;;0.79;41.21;93674.22;5070054;28;20045;-90
2022/02/09 03:51:58;;;;;;;5.43;1.98;;;;;;;0.91;41.69;93703.56;5076494;28;20044;-89
2022/02/09 03:57:46;;;;;;;4.53;2.10;;;;;;;0.88;41.74;93709.13;5080182;28;20157;-89
2022/02/09 04:00:37;;;;;;;4.40;1.92;;;;;;;0.83;41.88;93701.16;5093510;28;20111;-88
2022/02/09 04:03:30;;;;;;;5.82;2.88;;;;;;;0.72;41.85;93681.13;5034219;28;20658;-89
2022/02/09 04:06:34;;;;;;;;;;;;;;;;;;;;;
2022/02/09 04:09:25;;;;;;;5.65;2.47;;;;;;;0.67;41.82;93683.50;5056459;28;20540;-88
2022/02/09 04:15:29;;;;;;;4.65;2.33;;;;;;;0.58;42.32;93683.66;5021462;28;20497;-88
2022/02/09 04:39:19;;;;;;;5.53;2.70;;;;;;;0.46;42.80;93684.44;5009418;28;20049;-89
2022/02/09 04:45:57;;;;;;;7.28;3.30;;;;;;;0.48;43.12;93688.41;5031704;28;20065;-89
2022/02/09 04:54:28;;;;;;;10.95;4.43;;;;;;;0.84;48.88;93744.00;4988689;28;20077;-88
2022/02/09 05:00:19;;;;;;;7.88;3.80;;;;;;;0.67;53.56;93719.56;5037949;28;20045;-89
2022/02/09 05:27:00;;;;;;;7.65;4.00;;;;;;;0.46;51.50;93692.97;5038887;28;20603;-89
2022/02/09 05:29:44;;;;;;;13.88;4.38;;;;;;;0.38;51.10;93701.69;5063233;28;20044;-89
2022/02/09 05:32:45;;;;;;;11.07;4.57;;;;;;;0.40;50.99;93704.84;5042901;28;20106;-89
2022/02/09 05:35:22;;;;;;;9.27;4.07;;;;;;;0.48;50.60;93719.34;5057429;28;20167;-88
2022/02/09 05:38:21;;;;;;;;;;;;;;;;;;;;;
2022/02/09 05:41:11;;;;;;;7.47;3.42;;;;;;;0.52;49.40;93736.00;5055622;28;20052;-88
2022/02/09 05:43:41;;;;;;;8.68;4.07;;;;;;;0.36;48.48;93708.00;5052616;28;20062;-88
2022/02/09 05:51:43;;;;;;;;;;;;;;;;;;;;;
2022/02/09 05:57:00;;;;;;;9.50;3.67;;;;;;;0.33;48.28;93705.81;5071378;28;20513;-88
2022/02/09 05:59:35;;;;;;;8.10;4.30;;;;;;;0.45;49.22;93721.50;5067559;28;20425;-87
2022/02/09 06:02:06;;;;;;;10.20;3.75;;;;;;;0.54;49.34;93730.63;5034656;28;20048;-87
2022/02/09 06:04:41;;;;;;;6.97;3.22;;;;;;;0.57;48.80;93741.38;5054242;28;20036;-87
2022/02/09 06:07:13;;;;;;;7.55;4.10;;;;;;;0.48;48.15;93728.84;5018489;28;20759;-88
2022/02/09 06:09:41;;;;;;;7.72;3.65;;;;;;;0.49;47.59;93736.38;5048282;28;20032;-89
2022/02/09 06:12:20;;;;;;;7.70;3.75;;;;;;;0.65;46.94;93757.63;5072584;28;20090;-87
2022/02/09 06:20:18;;;;;;;10.60;4.38;;;;;;;0.71;44.00;93780.84;5063652;28;20412;-87
2022/02/09 06:22:49;;;;;;;8.88;4.32;;;;;;;0.22;43.06;93702.00;5071527;28;20069;-87
2022/02/09 06:25:18;;;;;;;9.18;3.95;;;;;;;0.64;42.57;93763.78;5066883;28;20029;-89
2022/02/09 06:27:56;;;;;;;;;;;;;;;;;;;;;
2022/02/09 06:30:28;;;;;;;8.23;4.00;;;;;;;0.27;42.34;93704.81;5093361;28;20113;-87
2022/02/09 06:33:05;;;;;;;8.98;4.20;;;;;;;0.73;42.42;93775.50;5058289;28;21595;-87
2022/02/09 06:35:54;;;;;;;8.55;4.07;;;;;;;0.31;42.16;93706.00;5041716;28;20114;-88
2022/02/09 06:38:27;;;;;;;11.75;4.22;;;;;;;0.70;41.50;93758.66;5072048;28;20090;-87
2022/02/09 06:41:07;;;;;;;8.13;4.07;;;;;;;0.93;41.76;93789.25;5038559;28;20505;-87
2022/02/09 06:43:35;;;;;;;9.65;4.65;;;;;;;0.61;41.55;93745.16;5043556;28;20032;-87
2022/02/09 06:46:19;;;;;;;;;;;;;;;;;;;;;
2022/02/09 06:48:52;;;;;;;8.10;4.47;;;;;;;0.72;40.42;93750.72;5055339;28;20038;-86
2022/02/09 06:51:47;;;;;;;12.30;4.60;;;;;;;2.09;38.23;93715.75;5045908;28;20083;-86
2022/02/09 07:00:47;;;;;;;7.90;4.25;;;;;;;8.69;27.96;93756.81;5073282;28;20040;-87
2022/02/09 07:03:53;;;;;;;8.85;4.22;;;;;;;9.88;26.02;93716.88;5059603;28;20040;-87
2022/02/09 07:06:28;;;;;;;8.52;3.95;;;;;;;11.43;24.67;93725.13;5058832;28;20045;-86
2022/02/09 07:08:58;;;;;;;7.80;3.78;;;;;;;12.54;23.81;93712.22;5035465;28;20215;-88
2022/02/09 07:11:37;;;;;;;9.55;4.03;;;;;;;13.65;22.67;93719.00;5004150;28;20046;-87
2022/02/09 07:14:13;;;;;;;7.15;4.00;;;;;;;14.79;21.54;93728.22;5053418;28;20076;-87
2022/02/09 07:16:44;;;;;;;9.48;4.53;;;;;;;15.64;20.83;93715.22;5047381;28;20037;-87
2022/02/09 07:19:30;;;;;;;9.18;4.82;;;;;;;16.60;19.50;93722.63;5038992;28;20068;-89
2022/02/09 07:21:58;;;;;;;11.40;4.85;;;;;;;17.81;17.95;93749.56;5039759;28;20041;-87
2022/02/09 07:24:45;;;;;;;11.07;4.93;;;;;;;18.66;16.86;93735.53;5054867;28;20033;-88
2022/02/09 07:27:46;;;;;;;8.75;4.32;;;;;;;19.67;15.95;93773.59;5071267;28;20035;-87
2022/02/09 07:30:43;;;;;;;8.48;4.57;;;;;;;19.92;15.48;93715.50;5077112;28;20043;-88
2022/02/09 07:33:13;;;;;;;12.57;4.93;;;;;;;20.76;14.46;93713.28;5073985;28;20472;-86
2022/02/09 07:35:41;;;;;;;13.32;5.53;;;;;;;21.57;14.01;93717.56;5091958;28;20024;-86
2022/02/09 07:38:07;;;;;;;10.18;4.93;;;;;;;22.44;14.00;93759.47;5054472;28;20041;-86
2022/02/09 07:40:32;;;;;;;13.13;5.38;;;;;;;23.12;13.06;93755.59;5049986;28;20416;-86
2022/02/09 07:43:04;;;;;;;13.95;5.38;;;;;;;23.94;12.64;93759.97;5052261;28;20132;-87
2022/02/09 07:48:40;;;;;;;8.45;4.55;;;;;;;24.23;11.70;93752.75;5085967;28;20043;-85
2022/02/09 07:53:48;;;;;;;8.75;4.20;;;;;;;24.65;11.65;93773.75;5090997;28;20039;-86
2022/02/09 07:56:13;;;;;;;10.32;4.53;;;;;;;25.83;11.86;93776.53;5091538;28;20040;-86
2022/02/09 07:58:39;;;;;;;8.00;4.47;;;;;;;25.46;12.27;93768.84;5083951;28;20531;-87
2022/02/09 08:01:05;;;;;;;6.07;3.60;;;;;;;25.49;12.20;93759.34;5091153;28;20093;-87
2022/02/09 08:03:31;;;;;;;8.48;3.72;;;;;;;26.10;11.91;93779.44;5091263;28;20036;-85
2022/02/09 08:05:57;;;;;;;11.93;4.20;;;;;;;26.46;13.01;93759.44;5066081;28;20102;-88
2022/02/09 08:08:28;;;;;;;11.32;4.82;;;;;;;26.99;13.57;93777.63;5062639;28;20036;-87
2022/02/09 08:10:58;;;;;;;7.05;4.05;;;;;;;26.80;14.49;93719.38;5070608;28;20090;-87
2022/02/09 08:27:35;;;;;;;8.52;3.58;;;;;;;19.89;22.15;93771.94;5071088;28;20041;-86
2022/02/09 08:34:53;;;;;;;10.27;3.97;;;;;;;15.73;26.66;93790.09;5055046;28;20028;-90
2022/02/09 08:37:19;;;;;;;9.32;4.75;;;;;;;13.59;30.27;93794.53;5051896;28;20045;-93
2022/02/09 08:40:11;;;;;;;8.48;3.83;;;;;;;12.41;31.37;93796.81;5068524;28;20458;-93
2022/02/09 08:42:59;;;;;;;12.43;4.43;;;;;;;12.34;30.94;93731.44;5033593;28;20121;-92
2022/02/09 08:46:15;;;;;;;;;;;;;;;;;;;;;
2022/02/09 08:48:56;;;;;;;11.32;4.70;;;;;;;11.63;32.70;93747.97;5062386;28;20044;-91
2022/02/09 08:51:41;;;;;;;8.02;3.90;;;;;;;11.38;32.15;93725.91;5053292;28;20033;-91
2022/02/09 08:54:28;;;;;;;9.15;4.25;;;;;;;11.14;31.82;93722.19;5036851;28;20477;-91
2022/02/09 08:57:12;;;;;;;;;;;;;;;;;;;;;
2022/02/09 09:00:00;;;;;;;10.07;4.32;;;;;;;10.45;34.08;93724.06;5064138;28;20055;-91
2022/02/09 09:03:12;;;;;;;;;;;;;;;;;;;;;
2022/02/09 09:05:53;;;;;;;9.93;4.00;;;;;;;10.14;36.81;93721.25;5085998;28;20075;-93
2022/02/09 09:08:57;;;;;;;13.85;4.93;;;;;;;10.16;39.12;93721.00;5094326;28;20072;-94
2022/02/09 09:12:02;;;;;;;16.60;5.10;;;;;;;9.82;37.38;93728.34;5064364;28;20039;-94
2022/02/09 10:33:31;;;;;;;8.68;4.65;;;;;;;9.70;36.25;93810.38;5044618;28;20037;-93
2022/02/09 10:36:27;;;;;;;10.85;4.07;;;;;;;9.76;38.13;93814.59;5041640;28;20037;-94
2022/02/09 10:39:28;;;;;;;11.73;4.35;;;;;;;9.57;35.25;93763.72;5022843;28;20065;-93
2022/02/09 10:45:52;;;;;;;13.88;4.70;;;;;;;9.97;37.87;93815.59;5041723;28;20037;-93
2022/02/09 10:53:00;;;;;;;10.82;4.97;;;;;;;9.63;36.75;93761.94;5033646;28;20049;-94
2022/02/09 10:55:28;;;;;;;8.00;4.70;;;;;;;9.18;38.65;93724.69;5023136;28;20096;-93
2022/02/09 10:58:37;;;;;;;9.82;4.70;;;;;;;10.01;37.38;93800.16;5028879;28;20045;-93
2022/02/09 11:01:14;;;;;;;11.35;4.65;;;;;;;10.04;36.69;93765.66;5006873;28;20049;-92
2022/02/09 11:04:25;;;;;;;15.60;4.80;;;;;;;10.12;36.76;93751.31;5023610;28;20037;-93
2022/02/09 11:07:28;;;;;;;11.60;4.93;;;;;;;9.57;37.96;93730.53;5021698;28;20073;-93
2022/02/09 11:10:34;;;;;;;9.25;4.78;;;;;;;10.20;38.26;93758.72;5019786;28;20102;-93
2022/02/09 11:16:55;;;;;;;11.27;4.72;;;;;;;10.21;38.41;93729.66;5015301;28;20045;-94
2022/02/09 11:19:45;;;;;;;7.82;4.57;;;;;;;10.74;38.66;93744.59;5040929;28;20037;-94
2022/02/09 11:26:09;;;;;;;;;;;;;;;;;;;;;
2022/02/09 11:29:34;;;;;;;9.57;4.88;;;;;;;9.83;42.52;93771.78;5048035;28;20044;-93
2022/02/09 11:32:30;;;;;;;13.38;4.28;;;;;;;9.94;43.55;93773.44;5038647;28;20502;-93
2022/02/09 11:39:49;;;;;;;9.27;4.50;;;;;;;10.37;41.26;93700.97;5053899;28;20045;-93
2022/02/09 11:42:37;;;;;;;;;;;;;;;;;;;;;
2022/02/09 11:46:16;;;;;;;;;;;;;;;;;;;;;
2022/02/09 11:49:14;;;;;;;14.20;5.13;;;;;;;11.21;41.79;93754.19;5026875;28;20540;-93
2022/02/09 12:11:33;;;;;;;13.98;4.97;;;;;;;10.99;42.62;93717.72;5010389;28;20045;-78
2022/02/09 12:14:04;;;;;;;11.95;4.43;;;;;;;10.91;42.01;93716.38;5016661;28;20026;-78
2022/02/09 12:19:09;;;;;;;11.77;4.70;;;;;;;10.88;42.82;93713.50;5021177;28;20399;-78
2022/02/09 12:22:05;;;;;;;10.32;4.88;;;;;;;10.52;44.13;93721.22;5020647;28;20034;-78
2022/02/09 12:24:33;;;;;;;12.15;5.28;;;;;;;10.72;43.45;93716.06;5021250;28;20048;-78
2022/02/09 12:27:06;;;;;;;15.60;5.43;;;;;;;10.81;42.71;93708.50;5021051;28;20040;-77
2022/02/09 12:29:37;;;;;;;15.95;5.93;;;;;;;10.88;42.80;93703.03;5036267;28;20037;-77
2022/02/09 12:32:26;;;;;;;11.32;6.13;;;;;;;10.94;42.28;93701.97;5039401;28;20040;-78
2022/02/09 12:35:10;;;;;;;14.10;6.07;;;;;;;10.58;43.07;93705.28;5040033;28;20436;-78
2022/02/09 12:37:40;;;;;;;16.33;6.53;;;;;;;10.68;43.02;93695.88;5033669;28;20026;-78
2022/02/09 12:40:21;;;;;;;10.73;6.40;;;;;;;10.43;43.02;93684.28;5028729;28;20045;-77
2022/02/09 12:42:50;;;;;;;14.52;6.45;;;;;;;10.59;42.22;93700.81;5020817;28;20486;-77
2022/02/09 12:45:19;;;;;;;16.63;6.50;;;;;;;11.03;42.22;93693.38;5037741;28;20114;-77
2022/02/09 12:47:52;;;;;;;17.63;6.22;;;;;;;11.42;41.12;93692.91;5038089;28;20038;-78
2022/02/09 12:50:24;;;;;;;11.57;5.97;;;;;;;11.52;39.73;93686.06;5021453;28;20026;-78
2022/02/09 12:52:51;;;;;;;11.80;6.30;;;;;;;11.13;40.93;93689.19;5040521;28;20038;-79
2022/02/09 12:55:18;;;;;;;13.07;5.90;;;;;;;10.97;41.35;93676.06;5038418;28;20030;-79
2022/02/09 12:58:00;;;;;;;14.32;6.57;;;;;;;10.87;41.29;93676.03;5039735;28;20120;-80
2022/02/09 13:00:43;;;;;;;11.90;6.45;;;;;;;11.00;40.96;93669.50;5030319;28;20041;-80
2022/02/09 13:03:13;;;;;;;14.20;6.82;;;;;;;10.71;42.12;93662.09;5017641;28;20053;-79
2022/02/09 13:05:49;;;;;;;15.45;5.90;;;;;;;11.37;40.50;93660.63;4999322;28;20125;-79
2022/02/09 13:08:25;;;;;;;12.82;5.97;;;;;;;10.99;41.23;93660.88;5021794;28;20041;-79
2022/02/09 13:11:03;;;;;;;12.05;6.18;;;;;;;11.32;40.80;93663.25;5026314;28;20030;-78
2022/02/09 13:13:31;;;;;;;15.35;6.72;;;;;;;11.42;40.29;93661.44;5034433;28;20036;-78
2022/02/09 13:18:55;;;;;;;13.35;6.88;;;;;;;11.47;39.51;93658.03;5004247;28;20570;-80
2022/02/09 14:03:28;;;;;;;13.57;6.68;;;;;;;12.07;38.45;93616.25;5018395;28;20091;-76
2022/02/09 14:06:55;;;;;;;13.45;7.18;;;;;;;12.63;37.59;93621.28;5016672;28;20057;-78
2022/02/09 14:54:51;;;;;;;15.20;7.60;;;;;;;12.43;36.84;93611.66;5003288;28;20415;-77
2022/02/09 14:57:22;;;;;;;14.05;7.57;;;;;;;12.22;37.33;93610.94;5018443;28;20037;-78
2022/02/09 15:00:08;;;;;;;16.67;7.82;;;;;;;12.54;36.51;93596.66;5024716;28;20080;-78
2022/02/09 15:02:46;;;;;;;17.33;7.75;;;;;;;12.62;36.24;93603.94;5015787;28;20041;-78
2022/02/09 15:08:08;;;;;;;18.88;7.65;;;;;;;12.43;37.47;93605.63;5000997;28;20038;-76
2022/02/09 15:10:51;;;;;;;16.33;7.47;;;;;;;12.36;37.12;93605.13;4994916;28;20073;-76
2022/02/09 15:13:33;;;;;;;19.27;8.50;;;;;;;12.04;37.93;93609.69;4987072;28;21477;-77
2022/02/09 15:23:23;;;;;;;16.30;8.55;;;;;;;12.31;37.56;93607.75;5012653;28;20049;-78
2022/02/09 15:25:49;;;;;;;15.13;7.82;;;;;;;12.23;37.24;93596.78;4991057;28;20049;-82
2022/02/09 15:28:15;;;;;;;17.35;9.13;;;;;;;12.44;37.41;93592.22;5016129;28;20120;-79
2022/02/09 15:31:03;;;;;;;17.20;7.90;;;;;;;12.67;36.59;93596.03;5011644;28;20037;-78
2022/02/09 15:33:35;;;;;;;17.33;8.40;;;;;;;12.23;36.14;93591.53;4998399;28;20045;-79
2022/02/09 15:36:01;;;;;;;19.58;7.65;;;;;;;12.44;36.12;93588.81;5014832;28;20050;-80
2022/02/09 15:38:37;;;;;;;17.08;7.40;;;;;;;12.36;35.11;93594.59;5002174;28;20030;-78
2022/02/09 15:41:18;;;;;;;17.00;7.15;;;;;;;12.17;36.70;93589.97;5016278;28;20049;-78
2022/02/09 15:56:18;;;;;;;20.38;7.85;;;;;;;11.72;37.04;93591.66;5014653;28;20045;-79
2022/02/09 16:08:31;;;;;;;18.63;7.35;;;;;;;10.12;42.06;93599.56;4997075;28;20034;-80
2022/02/09 16:21:50;;;;;;;16.40;6.65;;;;;;;9.41;43.86;93615.63;5016690;28;20044;-78
2022/02/09 16:38:02;;;;;;;18.40;7.07;;;;;;;8.43;46.21;93614.78;5032854;28;20064;-79
2022/02/09 16:46:12;;;;;;;22.50;7.95;;;;;;;8.00;47.55;93626.78;5001378;28;20034;-79
2022/02/09 16:48:43;;;;;;;16.00;6.88;;;;;;;7.85;47.94;93629.97;5021182;28;20041;-79
2022/02/09 16:51:14;;;;;;;16.10;7.03;;;;;;;7.78;48.48;93625.97;5004103;28;20065;-79
2022/02/09 16:54:01;;;;;;;16.38;7.47;;;;;;;7.68;48.24;93624.81;4993891;28;20048;-79
2022/02/09 17:15:43;;;;;;;16.80;8.63;;;;;;;6.84;50.46;93628.19;5006369;28;20104;-79
2022/02/09 17:18:58;;;;;;;14.05;8.10;;;;;;;6.76;50.48;93628.59;4988804;28;20038;-79
2022/02/09 17:20:58;;;;;;;24.33;9.32;;;;;;;6.70;50.74;93632.13;5017671;28;20119;-79
2022/02/09 17:23:23;;;;;;;18.83;9.55;;;;;;;6.63;50.90;93639.28;5021993;28;20029;-78
2022/02/09 17:25:49;;;;;;;19.45;8.85;;;;;;;6.56;51.08;93641.25;5008467;28;20045;-79
2022/02/09 17:28:15;;;;;;;18.52;8.68;;;;;;;6.50;51.42;93639.56;5016296;28;20487;-77
2022/02/09 17:36:36;;;;;;;17.58;8.38;;;;;;;6.23;52.15;93637.50;4988148;28;20174;-77
2022/02/09 17:57:48;;;;;;;18.15;8.32;;;;;;;5.64;53.47;93651.34;4988829;28;20123;-77
2022/02/09 18:00:16;;;;;;;15.18;7.65;;;;;;;5.56;53.27;93651.72;4992071;28;20141;-76
2022/02/09 18:02:45;;;;;;;16.77;7.90;;;;;;;5.53;53.39;93657.34;4993036;28;20026;-74
2022/02/09 18:05:18;;;;;;;18.67;7.88;;;;;;;5.50;53.51;93650.00;5009833;28;20125;-74
2022/02/09 18:07:47;;;;;;;22.75;8.98;;;;;;;5.53;53.94;93657.34;5018773;28;20048;-76
2022/02/09 18:10:24;;;;;;;19.75;7.55;;;;;;;5.48;54.01;93659.06;4986608;28;20121;-74
2022/02/09 19:03:28;;;;;;;13.07;5.55;;;;;;;4.76;63.01;93672.91;4987594;28;20484;-76
2022/02/09 19:05:57;;;;;;;20.40;5.40;;;;;;;4.69;63.75;93667.81;5009132;28;20050;-76
2022/02/09 19:48:40;;;;;;;21.48;5.38;;;;;;;4.04;69.86;93683.97;5012552;28;20438;-75
2022/02/09 19:54:08;;;;;;;16.35;5.65;;;;;;;3.94;70.25;93681.06;5008693;28;20128;-75
2022/02/09 19:56:36;;;;;;;16.10;5.07;;;;;;;3.86;70.67;93674.38;5008886;28;20087;-74
2022/02/09 19:59:09;;;;;;;19.98;5.35;;;;;;;3.88;70.80;93687.91;5011378;28;20030;-75
2022/02/09 20:01:36;;;;;;;17.98;5.25;;;;;;;3.87;72.04;93682.94;4999978;28;20038;-75
2022/02/09 20:04:07;;;;;;;14.10;5.30;;;;;;;3.85;72.07;93693.53;4993177;28;20072;-74
2022/02/09 20:06:33;;;;;;;11.68;4.82;;;;;;;3.84;71.92;93693.75;4990831;28;20050;-75
2022/02/09 20:08:59;;;;;;;16.38;4.68;;;;;;;3.85;71.97;93687.53;4975539;28;20176;-75
2022/02/09 20:11:25;;;;;;;13.55;4.95;;;;;;;3.79;71.39;93694.38;5007945;28;20531;-75
2022/02/09 20:13:52;;;;;;;10.88;4.63;;;;;;;3.75;72.82;93685.44;4992520;28;20048;-74
2022/02/09 20:16:24;;;;;;;18.63;5.55;;;;;;;3.69;72.58;93683.72;4991254;28;20022;-74
2022/02/09 20:18:51;;;;;;;18.98;5.10;;;;;;;3.68;73.34;93682.94;5007366;28;20428;-75
2022/02/09 20:21:19;;;;;;;18.08;4.90;;;;;;;3.65;72.59;93682.56;5009580;28;20037;-76
2022/02/09 20:23:45;;;;;;;20.33;5.82;;;;;;;3.67;73.08;93683.94;4992004;28;20042;-75
2022/02/09 20:26:11;;;;;;;15.68;5.15;;;;;;;3.64;73.50;93684.34;5006465;28;20030;-73
2022/02/09 20:28:42;;;;;;;13.95;4.80;;;;;;;3.62;73.23;93683.78;5007773;28;20058;-73
2022/02/09 20:31:12;;;;;;;16.77;5.25;;;;;;;3.61;74.36;93682.19;4972731;28;20040;-75
2022/02/09 20:33:47;;;;;;;15.43;5.18;;;;;;;3.60;74.65;93682.41;4975714;28;20495;-74
2022/02/09 20:36:16;;;;;;;12.30;4.57;;;;;;;3.57;75.36;93685.44;5009043;28;20034;-74
2022/02/09 20:38:43;;;;;;;24.75;6.30;;;;;;;3.53;75.54;93687.66;5008818;28;20037;-75
2022/02/09 20:41:11;;;;;;;20.83;5.95;;;;;;;3.54;76.37;93684.06;5015986;28;20046;-74
2022/02/09 20:43:46;;;;;;;13.18;5.60;;;;;;;3.51;76.39;93684.47;5012446;28;20034;-74
2022/02/09 20:46:13;;;;;;;14.43;5.80;;;;;;;3.51;77.12;93687.88;5013259;28;20042;-75
2022/02/09 20:48:38;;;;;;;12.95;5.03;;;;;;;3.50;77.16;93681.09;5011411;28;20065;-74
2022/02/09 20:51:04;;;;;;;11.77;4.97;;;;;;;3.50;77.06;93688.06;5010833;28;20072;-75
2022/02/09 20:53:30;;;;;;;16.90;4.65;;;;;;;3.50;76.97;93680.31;4984242;28;20029;-74
2022/02/09 20:55:57;;;;;;;18.98;4.85;;;;;;;3.48;77.12;93680.50;5010726;28;20476;-74
2022/02/09 20:58:25;;;;;;;15.18;4.68;;;;;;;3.48;77.52;93687.50;4994337;28;20061;-75
2022/02/09 21:00:58;;;;;;;18.25;4.93;;;;;;;3.46;78.20;93685.09;5004888;28;20109;-74
2022/02/09 21:08:50;;;;;;;16.95;5.57;;;;;;;3.31;77.80;93679.47;4988272;28;20041;-75
2022/02/09 21:14:04;;;;;;;14.88;5.05;;;;;;;3.23;78.17;93666.81;5008165;28;20066;-74
2022/02/09 21:30:53;;;;;;;15.32;5.00;;;;;;;3.22;77.71;93675.56;5008665;28;20453;-74
2022/02/09 21:56:07;;;;;;;18.77;5.80;;;;;;;2.91;79.75;93656.50;5024464;28;20059;-75
